createdAt,value
2016-05-31T00:00:15.187Z,21.39
2016-05-31T00:01:15.221Z,21.39
2016-05-31T00:02:15.239Z,21.35
2016-05-31T00:03:15.117Z,21.36
2016-05-31T00:04:15.291Z,21.33
2016-05-31T00:05:15.325Z,21.33
2016-05-31T00:06:15.344Z,21.39
2016-05-31T00:07:15.237Z,21.32
2016-05-31T00:08:15.427Z,21.33
2016-05-31T00:09:15.430Z,21.35
2016-05-31T00:10:15.464Z,21.25
2016-05-31T00:11:15.498Z,21.24
2016-05-31T00:12:15.516Z,21.24
2016-05-31T00:13:15.549Z,21.22
2016-05-31T00:14:15.568Z,21.24
2016-05-31T00:15:15.602Z,21.22
2016-05-31T00:16:15.480Z,21.21
2016-05-31T00:17:15.670Z,21.21
2016-05-31T00:18:15.703Z,21.18
2016-05-31T00:19:15.723Z,21.15
2016-05-31T00:20:15.741Z,21.12
2016-05-31T00:21:15.775Z,21.14
2016-05-31T00:22:16.136Z,21.17
2016-05-31T00:23:16.780Z,21.02
2016-05-31T00:24:15.844Z,21
2016-05-31T00:25:15.879Z,21.05
2016-05-31T00:26:15.913Z,21.06
2016-05-31T00:27:15.947Z,21.03
2016-05-31T00:28:15.964Z,20.97
2016-05-31T00:29:15.984Z,21
2016-05-31T00:30:15.861Z,20.97
2016-05-31T00:31:16.052Z,20.93
2016-05-31T00:32:16.085Z,20.9
2016-05-31T00:33:16.103Z,20.88
2016-05-31T00:34:16.138Z,20.93
2016-05-31T00:35:16.156Z,20.9
2016-05-31T00:36:16.190Z,20.92
2016-05-31T00:37:16.552Z,20.88
2016-05-31T00:38:16.101Z,20.82
2016-05-31T00:39:16.105Z,20.87
2016-05-31T00:40:16.294Z,20.87
2016-05-31T00:41:16.328Z,20.82
2016-05-31T00:42:16.346Z,20.87
2016-05-31T00:43:16.365Z,20.8
2016-05-31T00:44:16.399Z,20.77
2016-05-31T00:45:16.432Z,20.77
2016-05-31T00:46:16.310Z,20.78
2016-05-31T00:47:16.485Z,20.77
2016-05-31T00:48:16.363Z,20.75
2016-05-31T00:49:16.538Z,20.72
2016-05-31T00:50:16.415Z,20.7
2016-05-31T00:51:16.433Z,20.72
2016-05-31T00:52:16.624Z,20.7
2016-05-31T00:53:16.532Z,20.69
2016-05-31T00:54:16.520Z,20.62
2016-05-31T00:55:16.694Z,20.59
2016-05-31T00:56:16.415Z,20.6
2016-05-31T00:57:16.762Z,20.65
2016-05-31T00:58:16.624Z,20.65
2016-05-31T00:59:16.814Z,20.6
2016-05-31T01:00:16.833Z,20.55
2016-05-31T01:01:16.866Z,20.56
2016-05-31T01:02:16.885Z,20.55
2016-05-31T01:19:03.181Z,20.39
2016-05-31T01:20:03.042Z,20.29
2016-05-31T01:21:03.123Z,20.37
2016-05-31T01:22:03.267Z,20.26
2016-05-31T01:23:04.456Z,20.37
2016-05-31T01:24:03.320Z,20.31
2016-05-31T01:25:03.384Z,20.34
2016-05-31T01:26:03.200Z,20.31
2016-05-31T01:27:03.405Z,20.25
2016-05-31T01:28:03.408Z,20.25
2016-05-31T01:29:03.286Z,20.32
2016-05-31T01:30:03.476Z,20.24
2016-05-31T01:31:03.494Z,20.32
2016-05-31T01:32:03.356Z,20.28
2016-05-31T01:33:03.546Z,20.26
2016-05-31T01:34:03.581Z,20.26
2016-05-31T01:35:03.614Z,20.26
2016-05-31T01:36:03.632Z,20.21
2016-05-31T01:37:03.511Z,20.18
2016-05-31T01:38:05.435Z,20.11
2016-05-31T01:39:03.547Z,20.18
2016-05-31T01:40:03.737Z,20.13
2016-05-31T01:41:03.615Z,20.16
2016-05-31T01:42:03.788Z,20.11
2016-05-31T01:43:03.651Z,20.11
2016-05-31T01:44:03.841Z,20.11
2016-05-31T01:45:03.860Z,20.13
2016-05-31T01:46:03.893Z,20.18
2016-05-31T01:47:03.927Z,20.02
2016-05-31T01:48:03.946Z,20.06
2016-05-31T01:49:03.980Z,20.06
2016-05-31T01:50:03.998Z,20.09
2016-05-31T01:51:03.892Z,20.02
2016-05-31T01:52:04.066Z,20.04
2016-05-31T01:53:04.818Z,20.06
2016-05-31T01:54:03.946Z,19.99
2016-05-31T01:55:03.981Z,19.94
2016-05-31T01:56:04.156Z,19.99
2016-05-31T01:57:04.033Z,19.95
2016-05-31T01:58:04.207Z,19.99
2016-05-31T01:59:04.084Z,19.94
2016-05-31T02:00:04.291Z,19.95
2016-05-31T02:01:04.309Z,19.96
2016-05-31T02:02:04.312Z,19.88
2016-05-31T02:03:04.345Z,19.89
2016-05-31T02:04:04.364Z,19.85
2016-05-31T02:05:04.413Z,19.94
2016-05-31T02:06:04.276Z,19.85
2016-05-31T02:07:04.450Z,19.91
2016-05-31T02:08:04.858Z,19.88
2016-05-31T02:09:04.502Z,19.82
2016-05-31T02:10:04.521Z,19.84
2016-05-31T02:11:04.555Z,19.81
2016-05-31T02:12:04.589Z,19.89
2016-05-31T02:13:04.451Z,19.81
2016-05-31T02:14:04.657Z,19.79
2016-05-31T02:15:04.503Z,19.76
2016-05-31T02:16:04.693Z,19.71
2016-05-31T02:17:04.727Z,19.81
2016-05-31T02:18:04.746Z,19.77
2016-05-31T02:19:04.780Z,19.82
2016-05-31T02:20:04.641Z,19.7
2016-05-31T02:21:04.816Z,19.73
2016-05-31T02:22:04.850Z,19.71
2016-05-31T02:23:04.931Z,19.74
2016-05-31T02:24:04.902Z,19.7
2016-05-31T02:25:04.921Z,19.67
2016-05-31T02:26:04.955Z,19.73
2016-05-31T02:27:04.989Z,19.69
2016-05-31T02:28:04.851Z,19.66
2016-05-31T02:29:05.026Z,19.66
2016-05-31T02:30:05.059Z,19.66
2016-05-31T02:31:05.078Z,19.63
2016-05-31T02:32:05.095Z,19.62
2016-05-31T02:33:05.130Z,19.59
2016-05-31T02:34:05.179Z,19.59
2016-05-31T02:35:05.214Z,19.58
2016-05-31T02:36:05.216Z,19.63
2016-05-31T02:37:05.078Z,19.54
2016-05-31T02:38:05.268Z,19.54
2016-05-31T02:39:05.302Z,19.49
2016-05-31T02:40:05.320Z,19.63
2016-05-31T02:41:05.338Z,19.54
2016-05-31T02:42:05.372Z,19.69
2016-05-31T02:43:05.391Z,19.56
2016-05-31T02:44:05.425Z,19.56
2016-05-31T02:45:05.287Z,19.58
2016-05-31T02:46:05.477Z,19.52
2016-05-31T02:47:05.495Z,19.51
2016-05-31T02:48:05.529Z,19.58
2016-05-31T02:49:05.563Z,19.51
2016-05-31T02:50:05.566Z,19.56
2016-05-31T02:51:05.444Z,19.4
2016-05-31T02:52:05.634Z,19.45
2016-05-31T02:53:06.418Z,19.44
2016-05-31T02:54:05.686Z,19.4
2016-05-31T02:55:05.704Z,19.39
2016-05-31T02:56:05.582Z,19.44
2016-05-31T02:57:05.773Z,19.45
2016-05-31T02:58:05.790Z,19.41
2016-05-31T02:59:05.809Z,19.37
2016-05-31T03:00:05.842Z,19.41
2016-05-31T03:01:05.706Z,19.37
2016-05-31T03:02:05.895Z,19.41
2016-05-31T03:03:05.914Z,19.39
2016-05-31T03:04:05.634Z,19.41
2016-05-31T03:05:05.981Z,19.29
2016-05-31T03:06:05.844Z,19.29
2016-05-31T03:07:06.033Z,19.41
2016-05-31T03:08:06.037Z,19.31
2016-05-31T03:09:05.914Z,19.34
2016-05-31T03:10:06.089Z,19.34
2016-05-31T03:11:06.122Z,19.3
2016-05-31T03:12:05.984Z,19.31
2016-05-31T03:13:06.175Z,19.31
2016-05-31T03:14:06.052Z,19.33
2016-05-31T03:15:06.227Z,19.39
2016-05-31T03:16:06.261Z,19.33
2016-05-31T03:17:06.279Z,19.3
2016-05-31T03:18:06.297Z,19.24
2016-05-31T03:19:06.316Z,19.31
2016-05-31T03:20:06.349Z,19.26
2016-05-31T03:21:06.227Z,19.31
2016-05-31T03:22:06.402Z,19.3
2016-05-31T03:23:07.046Z,19.24
2016-05-31T03:24:06.454Z,19.3
2016-05-31T03:25:06.488Z,19.31
2016-05-31T03:26:06.351Z,19.27
2016-05-31T03:27:06.556Z,19.27
2016-05-31T03:28:06.558Z,19.29
2016-05-31T03:29:06.437Z,19.24
2016-05-31T03:30:06.611Z,19.24
2016-05-31T03:31:06.489Z,19.3
2016-05-31T03:32:06.664Z,19.19
2016-05-31T03:33:06.697Z,19.15
2016-05-31T03:34:06.715Z,19.26
2016-05-31T03:35:06.593Z,19.22
2016-05-31T03:36:06.768Z,19.22
2016-05-31T03:37:06.645Z,19.22
2016-05-31T03:38:06.867Z,19.21
2016-05-31T03:39:06.854Z,19.19
2016-05-31T03:40:06.872Z,19.19
2016-05-31T03:41:06.906Z,19.18
2016-05-31T03:42:06.924Z,19.16
2016-05-31T03:43:06.943Z,19.15
2016-05-31T03:44:06.821Z,19.12
2016-05-31T03:45:06.994Z,19.21
2016-05-31T03:46:07.030Z,19.15
2016-05-31T03:47:07.047Z,19.19
2016-05-31T03:48:06.768Z,19.12
2016-05-31T03:49:07.100Z,19.21
2016-05-31T03:50:07.133Z,19.12
2016-05-31T03:51:07.151Z,19.14
2016-05-31T03:52:07.171Z,19.11
2016-05-31T03:53:07.063Z,19.24
2016-05-31T03:54:07.082Z,19.14
2016-05-31T03:55:07.257Z,19.07
2016-05-31T03:56:07.274Z,19.09
2016-05-31T03:57:07.309Z,19.04
2016-05-31T03:58:07.327Z,19.09
2016-05-31T03:59:07.361Z,19.18
2016-05-31T04:00:07.395Z,19.11
2016-05-31T04:01:07.412Z,19.18
2016-05-31T04:02:07.291Z,19.08
2016-05-31T04:03:07.465Z,19.07
2016-05-31T04:04:07.483Z,19.12
2016-05-31T04:05:07.362Z,19.22
2016-05-31T04:06:07.536Z,19.22
2016-05-31T04:07:07.569Z,19.04
2016-05-31T04:08:07.572Z,19.18
2016-05-31T04:09:07.607Z,19.19
2016-05-31T04:10:07.641Z,19.14
2016-05-31T04:11:07.674Z,19.12
2016-05-31T04:12:07.709Z,19.14
2016-05-31T04:13:07.711Z,19.14
2016-05-31T04:14:07.760Z,19.12
2016-05-31T04:15:07.763Z,19.07
2016-05-31T04:16:07.797Z,19.07
2016-05-31T04:17:07.816Z,19.11
2016-05-31T04:18:07.849Z,19.14
2016-05-31T04:19:07.868Z,19.14
2016-05-31T04:20:07.730Z,19.18
2016-05-31T04:21:07.920Z,19.09
2016-05-31T04:22:07.954Z,19.22
2016-05-31T04:23:08.488Z,19.11
2016-05-31T04:24:07.991Z,19.11
2016-05-31T04:25:08.024Z,19.11
2016-05-31T04:26:08.043Z,19.15
2016-05-31T04:27:08.077Z,19.16
2016-05-31T04:28:07.939Z,19.07
2016-05-31T04:29:08.128Z,19.15
2016-05-31T04:30:08.162Z,19.09
2016-05-31T04:31:08.198Z,19.11
2016-05-31T04:32:08.200Z,19.24
2016-05-31T04:33:08.217Z,19.26
2016-05-31T04:34:08.237Z,19.14
2016-05-31T04:35:08.270Z,19.15
2016-05-31T04:36:08.303Z,19.16
2016-05-31T04:37:08.167Z,19.18
2016-05-31T04:38:08.200Z,19.16
2016-05-31T04:39:08.375Z,19.16
2016-05-31T04:40:08.252Z,19.22
2016-05-31T04:41:08.428Z,19.18
2016-05-31T04:42:08.461Z,19.27
2016-05-31T04:43:08.479Z,19.3
2016-05-31T04:44:08.513Z,19.24
2016-05-31T04:45:08.547Z,19.22
2016-05-31T04:46:08.550Z,19.24
2016-05-31T04:47:08.427Z,19.21
2016-05-31T04:48:08.602Z,19.27
2016-05-31T04:49:08.652Z,19.34
2016-05-31T04:50:08.654Z,19.34
2016-05-31T04:51:08.532Z,19.37
2016-05-31T04:52:08.566Z,19.33
2016-05-31T04:53:09.116Z,19.39
2016-05-31T04:54:08.759Z,19.34
2016-05-31T04:55:08.793Z,19.37
2016-05-31T04:56:08.810Z,19.47
2016-05-31T04:57:08.829Z,19.47
2016-05-31T04:58:08.863Z,19.49
2016-05-31T04:59:08.881Z,19.55
2016-05-31T05:00:08.760Z,19.54
2016-05-31T05:01:08.934Z,19.48
2016-05-31T05:02:08.967Z,19.44
2016-05-31T05:03:08.830Z,19.52
2016-05-31T05:04:08.848Z,19.52
2016-05-31T05:05:08.976Z,19.56
2016-05-31T05:06:09.056Z,19.56
2016-05-31T05:07:08.951Z,19.59
2016-05-31T05:08:09.218Z,19.49
2016-05-31T05:09:09.142Z,19.66
2016-05-31T05:10:09.177Z,19.55
2016-05-31T05:11:08.866Z,19.58
2016-05-31T05:12:09.073Z,19.58
2016-05-31T05:13:09.263Z,19.59
2016-05-31T05:14:09.188Z,19.54
2016-05-31T05:15:09.394Z,19.74
2016-05-31T05:16:09.396Z,19.66
2016-05-31T05:17:09.336Z,19.66
2016-05-31T05:18:09.385Z,19.55
2016-05-31T05:19:09.186Z,19.67
2016-05-31T05:20:09.485Z,19.56
2016-05-31T05:21:09.535Z,19.64
2016-05-31T05:22:09.537Z,19.64
2016-05-31T05:23:10.337Z,19.54
2016-05-31T05:24:09.527Z,19.74
2016-05-31T05:25:09.560Z,19.67
2016-05-31T05:26:09.579Z,19.69
2016-05-31T05:27:09.613Z,19.67
2016-05-31T05:28:09.632Z,19.58
2016-05-31T05:29:09.649Z,19.69
2016-05-31T05:30:09.527Z,19.67
2016-05-31T05:31:09.702Z,19.76
2016-05-31T05:32:09.736Z,19.73
2016-05-31T05:33:09.614Z,19.74
2016-05-31T05:34:09.632Z,19.7
2016-05-31T05:35:09.807Z,19.66
2016-05-31T05:36:09.684Z,19.71
2016-05-31T05:37:09.859Z,19.71
2016-05-31T05:38:10.455Z,19.82
2016-05-31T05:39:09.926Z,19.73
2016-05-31T05:40:09.929Z,19.69
2016-05-31T05:41:09.963Z,19.73
2016-05-31T05:42:09.998Z,19.82
2016-05-31T05:43:09.859Z,19.73
2016-05-31T05:44:09.737Z,19.79
2016-05-31T05:45:10.067Z,19.84
2016-05-31T05:46:10.086Z,19.81
2016-05-31T05:47:10.105Z,19.79
2016-05-31T05:48:10.154Z,19.82
2016-05-31T05:49:10.172Z,19.84
2016-05-31T05:50:10.190Z,19.76
2016-05-31T05:51:10.225Z,19.86
2016-05-31T05:52:10.258Z,19.81
2016-05-31T05:53:10.713Z,19.86
2016-05-31T05:54:10.296Z,19.79
2016-05-31T05:55:10.313Z,19.85
2016-05-31T05:56:10.191Z,19.91
2016-05-31T05:57:10.390Z,19.89
2016-05-31T05:58:10.435Z,19.77
2016-05-31T05:59:10.496Z,19.92
2016-05-31T06:00:10.540Z,19.85
2016-05-31T06:01:10.585Z,19.89
2016-05-31T06:02:10.640Z,19.94
2016-05-31T06:03:10.527Z,19.92
2016-05-31T06:04:10.711Z,19.92
2016-05-31T06:05:10.740Z,19.95
2016-05-31T06:06:10.783Z,19.95
2016-05-31T06:07:10.808Z,19.99
2016-05-31T06:08:10.830Z,20.06
2016-05-31T06:09:10.884Z,20.06
2016-05-31T06:10:10.906Z,20.06
2016-05-31T06:11:10.927Z,20.03
2016-05-31T06:12:10.963Z,20.04
2016-05-31T06:13:10.998Z,20.07
2016-05-31T06:14:11.018Z,20.03
2016-05-31T06:15:10.897Z,20.06
2016-05-31T06:16:11.088Z,20.07
2016-05-31T06:17:11.092Z,20.18
2016-05-31T06:18:11.126Z,20.11
2016-05-31T06:19:11.145Z,20.19
2016-05-31T06:20:11.179Z,20.16
2016-05-31T06:21:11.198Z,20.13
2016-05-31T06:22:11.233Z,20.21
2016-05-31T06:23:11.172Z,20.13
2016-05-31T06:24:11.284Z,20.14
2016-05-31T06:25:11.303Z,20.25
2016-05-31T06:26:11.180Z,20.25
2016-05-31T06:27:11.371Z,20.29
2016-05-31T06:28:11.373Z,20.31
2016-05-31T06:29:11.407Z,20.26
2016-05-31T06:30:11.441Z,20.31
2016-05-31T06:31:11.459Z,20.36
2016-05-31T06:32:11.509Z,20.36
2016-05-31T06:33:11.526Z,20.4
2016-05-31T06:34:11.546Z,20.37
2016-05-31T06:35:11.579Z,20.39
2016-05-31T06:36:11.598Z,20.47
2016-05-31T06:37:11.459Z,20.44
2016-05-31T06:38:11.807Z,20.52
2016-05-31T06:39:11.668Z,20.47
2016-05-31T06:40:11.702Z,20.52
2016-05-31T06:41:11.720Z,20.55
2016-05-31T06:42:11.755Z,20.51
2016-05-31T06:43:11.773Z,20.55
2016-05-31T06:44:11.791Z,20.55
2016-05-31T06:45:11.825Z,20.58
2016-05-31T06:46:11.858Z,20.63
2016-05-31T06:47:11.878Z,20.58
2016-05-31T06:48:11.896Z,20.59
2016-05-31T06:49:11.930Z,20.74
2016-05-31T06:50:11.948Z,20.74
2016-05-31T06:51:11.982Z,20.74
2016-05-31T06:52:12.016Z,20.77
2016-05-31T06:53:12.346Z,20.8
2016-05-31T06:54:12.068Z,20.87
2016-05-31T06:55:12.086Z,20.87
2016-05-31T06:56:12.121Z,20.85
2016-05-31T06:57:12.138Z,20.9
2016-05-31T06:58:12.157Z,20.92
2016-05-31T06:59:12.191Z,20.97
2016-05-31T07:00:12.225Z,21.02
2016-05-31T07:01:12.087Z,21
2016-05-31T07:02:12.262Z,21.05
2016-05-31T07:03:12.295Z,21.11
2016-05-31T07:04:12.376Z,21.21
2016-05-31T07:05:12.348Z,21.21
2016-05-31T07:06:12.365Z,21.27
2016-05-31T07:07:12.243Z,21.27
2016-05-31T07:08:12.450Z,21.36
2016-05-31T07:09:12.453Z,21.36
2016-05-31T07:10:12.470Z,21.36
2016-05-31T07:11:12.504Z,21.45
2016-05-31T07:12:12.522Z,21.42
2016-05-31T07:13:12.401Z,21.57
2016-05-31T07:14:12.575Z,21.55
2016-05-31T07:15:12.609Z,21.67
2016-05-31T07:16:12.486Z,21.69
2016-05-31T07:17:12.661Z,21.72
2016-05-31T07:18:12.694Z,21.8
2016-05-31T07:19:12.714Z,21.8
2016-05-31T07:20:12.763Z,21.8
2016-05-31T07:21:12.766Z,21.91
2016-05-31T07:22:12.627Z,21.95
2016-05-31T07:23:12.678Z,22.02
2016-05-31T07:24:12.852Z,21.98
2016-05-31T07:25:12.870Z,22.14
2016-05-31T07:26:12.904Z,22.08
2016-05-31T07:27:12.782Z,22.25
2016-05-31T07:28:12.957Z,22.26
2016-05-31T07:29:12.990Z,22.26
2016-05-31T07:30:12.852Z,22.35
2016-05-31T07:31:13.043Z,22.45
2016-05-31T07:32:12.890Z,22.39
2016-05-31T07:33:13.095Z,22.53
2016-05-31T07:34:13.113Z,22.51
2016-05-31T07:35:12.975Z,22.6
2016-05-31T07:36:13.165Z,22.72
2016-05-31T07:37:13.043Z,22.72
2016-05-31T07:38:13.249Z,22.78
2016-05-31T07:39:13.267Z,22.78
2016-05-31T07:40:13.270Z,22.9
2016-05-31T07:41:13.304Z,22.94
2016-05-31T07:42:13.322Z,22.98
2016-05-31T07:43:13.372Z,23.05
2016-05-31T07:44:13.389Z,23.09
2016-05-31T07:45:13.268Z,23.17
2016-05-31T07:46:13.443Z,23.28
2016-05-31T07:47:13.461Z,23.23
2016-05-31T07:48:13.353Z,23.25
2016-05-31T07:49:13.528Z,23.36
2016-05-31T07:50:13.531Z,23.44
2016-05-31T07:51:13.409Z,23.48
2016-05-31T07:52:13.599Z,23.51
2016-05-31T07:53:13.633Z,23.61
2016-05-31T07:54:13.651Z,23.69
2016-05-31T07:55:13.686Z,23.76
2016-05-31T07:56:13.704Z,23.74
2016-05-31T07:57:13.738Z,23.84
2016-05-31T07:58:13.599Z,23.84
2016-05-31T07:59:13.790Z,23.92
2016-05-31T08:00:13.824Z,24.02
2016-05-31T08:01:13.858Z,24.08
2016-05-31T08:02:13.860Z,24.13
2016-05-31T08:03:13.737Z,24.21
2016-05-31T08:04:13.929Z,24.28
2016-05-31T08:05:13.947Z,24.4
2016-05-31T08:06:13.981Z,24.38
2016-05-31T08:07:13.998Z,24.6
2016-05-31T08:08:14.470Z,24.5
2016-05-31T08:09:14.066Z,24.63
2016-05-31T08:10:14.101Z,24.66
2016-05-31T08:11:14.120Z,24.7
2016-05-31T08:12:14.153Z,24.68
2016-05-31T08:13:14.186Z,24.85
2016-05-31T08:14:14.221Z,24.93
2016-05-31T08:15:14.223Z,24.98
2016-05-31T08:16:14.258Z,25.06
2016-05-31T08:17:14.291Z,25.13
2016-05-31T08:18:14.309Z,25.13
2016-05-31T08:19:14.343Z,25.25
2016-05-31T08:20:14.205Z,25.31
2016-05-31T08:21:14.396Z,25.43
2016-05-31T08:22:14.367Z,25.55
2016-05-31T08:23:14.463Z,25.53
2016-05-31T08:24:14.482Z,25.66
2016-05-31T08:25:14.500Z,25.66
2016-05-31T08:26:14.706Z,25.78
2016-05-31T08:27:14.568Z,25.77
2016-05-31T08:28:14.649Z,25.93
2016-05-31T08:29:14.620Z,25.95
2016-05-31T08:30:14.655Z,26.05
2016-05-31T08:31:14.766Z,26.1
2016-05-31T08:32:14.707Z,26.22
2016-05-31T08:33:14.584Z,26.26
2016-05-31T08:34:14.759Z,26.25
2016-05-31T08:35:14.637Z,26.4
2016-05-31T08:36:14.686Z,26.48
2016-05-31T08:37:14.846Z,26.58
2016-05-31T08:38:15.942Z,26.63
2016-05-31T08:39:14.913Z,26.6
2016-05-31T08:40:14.931Z,26.74
2016-05-31T08:41:14.965Z,26.81
2016-05-31T08:42:14.999Z,26.88
2016-05-31T08:43:15.017Z,26.95
2016-05-31T08:44:15.051Z,27.03
2016-05-31T08:45:15.164Z,27.11
2016-05-31T08:46:15.259Z,27.15
2016-05-31T08:47:15.137Z,27.29
2016-05-31T08:48:15.172Z,27.36
2016-05-31T08:49:15.050Z,27.42
2016-05-31T08:50:15.239Z,27.44
2016-05-31T08:51:15.258Z,27.51
2016-05-31T08:52:15.291Z,27.48
2016-05-31T08:53:16.966Z,27.63
2016-05-31T08:54:15.281Z,27.67
2016-05-31T08:55:15.378Z,27.67
2016-05-31T08:56:15.411Z,27.67
2016-05-31T08:57:15.446Z,27.78
2016-05-31T08:58:15.464Z,27.89
2016-05-31T08:59:15.341Z,27.92
2016-05-31T09:00:15.532Z,27.98
2016-05-31T09:01:15.550Z,28.02
2016-05-31T09:02:15.427Z,28.17
2016-05-31T09:03:15.602Z,28.2
2016-05-31T09:04:15.730Z,28.23
2016-05-31T09:05:15.670Z,28.38
2016-05-31T09:06:15.548Z,28.44
2016-05-31T09:07:15.754Z,28.57
2016-05-31T09:08:15.632Z,28.66
2016-05-31T09:09:15.790Z,28.64
2016-05-31T09:10:15.824Z,28.76
2016-05-31T09:11:15.701Z,28.89
2016-05-31T09:12:15.892Z,29.02
2016-05-31T09:13:15.911Z,29.13
2016-05-31T09:14:16.023Z,29.1
2016-05-31T09:15:15.962Z,29.29
2016-05-31T09:16:15.840Z,29.34
2016-05-31T09:17:16.092Z,29.45
2016-05-31T09:18:16.065Z,29.57
2016-05-31T09:19:16.145Z,29.57
2016-05-31T09:20:16.117Z,29.61
2016-05-31T09:21:16.150Z,29.69
2016-05-31T09:22:16.170Z,29.79
2016-05-31T09:23:16.765Z,29.82
2016-05-31T09:24:16.237Z,29.9
2016-05-31T09:25:16.286Z,30
2016-05-31T09:26:16.399Z,30.06
2016-05-31T09:27:16.338Z,30.18
2016-05-31T09:28:16.358Z,30.1
2016-05-31T09:29:16.391Z,30.23
2016-05-31T09:30:16.269Z,30.25
2016-05-31T09:31:16.302Z,30.34
2016-05-31T09:32:16.478Z,30.34
2016-05-31T09:33:16.370Z,30.4
2016-05-31T09:34:16.405Z,30.47
2016-05-31T09:35:16.579Z,30.43
2016-05-31T09:36:16.612Z,30.5
2016-05-31T09:37:16.647Z,30.5
2016-05-31T09:38:16.541Z,30.53
2016-05-31T09:39:16.715Z,30.48
2016-05-31T09:40:16.796Z,30.54
2016-05-31T09:41:16.611Z,30.57
2016-05-31T09:42:16.801Z,30.63
2016-05-31T09:43:16.850Z,30.7
2016-05-31T09:44:16.556Z,30.78
2016-05-31T09:45:16.903Z,30.73
2016-05-31T09:46:16.937Z,30.84
2016-05-31T09:47:16.955Z,30.84
2016-05-31T09:48:16.989Z,30.84
2016-05-31T09:49:16.929Z,30.92
2016-05-31T09:50:17.229Z,30.99
2016-05-31T09:51:17.028Z,31.09
2016-05-31T09:52:17.250Z,31.06
2016-05-31T09:53:17.361Z,31.2
2016-05-31T09:54:17.177Z,31.21
2016-05-31T09:55:17.070Z,31.31
2016-05-31T09:56:17.308Z,31.27
2016-05-31T09:57:17.294Z,31.37
2016-05-31T09:58:17.328Z,31.34
2016-05-31T09:59:17.346Z,31.33
2016-05-31T10:00:17.288Z,31.42
2016-05-31T10:01:17.415Z,31.54
2016-05-31T10:02:17.449Z,31.56
2016-05-31T10:03:17.466Z,31.55
2016-05-31T10:04:17.501Z,31.65
2016-05-31T10:05:17.565Z,31.73
2016-05-31T10:06:17.585Z,31.73
2016-05-31T10:07:17.602Z,31.84
2016-05-31T10:08:18.043Z,31.93
2016-05-31T10:09:17.717Z,31.92
2016-05-31T10:10:17.705Z,31.92
2016-05-31T10:11:17.738Z,31.92
2016-05-31T10:12:17.710Z,32
2016-05-31T10:13:17.837Z,32.07
2016-05-31T10:14:17.840Z,32.03
2016-05-31T10:15:17.717Z,32.08
2016-05-31T10:16:17.268Z,32.12
2016-05-31T10:17:17.973Z,32.15
2016-05-31T10:18:17.976Z,32.15
2016-05-31T10:19:18.009Z,32.31
2016-05-31T10:20:18.029Z,32.36
2016-05-31T10:21:18.062Z,32.4
2016-05-31T10:22:18.033Z,32.43
2016-05-31T10:23:18.771Z,32.48
2016-05-31T10:24:18.336Z,32.59
2016-05-31T10:25:18.291Z,32.68
2016-05-31T10:26:18.403Z,32.78
2016-05-31T10:27:18.360Z,32.85
2016-05-31T10:28:18.144Z,32.96
2016-05-31T10:29:18.271Z,33.05
2016-05-31T10:30:18.211Z,33.09
2016-05-31T10:31:18.277Z,33.23
2016-05-31T10:32:18.419Z,33.34
2016-05-31T10:33:18.469Z,33.34
2016-05-31T10:34:18.613Z,33.43
2016-05-31T10:35:18.615Z,33.45
2016-05-31T10:36:18.618Z,33.43
2016-05-31T10:37:18.652Z,33.52
2016-05-31T10:38:19.655Z,33.55
2016-05-31T10:39:18.688Z,33.68
2016-05-31T10:40:18.707Z,33.67
2016-05-31T10:41:18.757Z,33.67
2016-05-31T10:42:18.775Z,33.67
2016-05-31T10:43:18.809Z,33.64
2016-05-31T10:44:18.859Z,33.69
2016-05-31T10:45:18.876Z,33.69
2016-05-31T10:46:18.926Z,33.73
2016-05-31T10:47:18.804Z,33.74
2016-05-31T10:48:18.994Z,33.76
2016-05-31T10:49:19.091Z,33.81
2016-05-31T10:50:19.062Z,33.89
2016-05-31T10:51:19.096Z,33.92
2016-05-31T10:52:19.130Z,34.06
2016-05-31T10:53:19.304Z,34.18
2016-05-31T10:54:19.042Z,34.21
2016-05-31T10:55:19.231Z,34.29
2016-05-31T10:56:19.266Z,34.35
2016-05-31T10:57:19.409Z,34.4
2016-05-31T10:58:19.349Z,34.38
2016-05-31T10:59:19.477Z,34.42
2016-05-31T11:00:19.495Z,34.47
2016-05-31T11:01:19.544Z,34.5
2016-05-31T11:02:19.579Z,34.6
2016-05-31T11:03:19.503Z,34.52
2016-05-31T11:04:19.552Z,34.67
2016-05-31T11:05:19.587Z,34.64
2016-05-31T11:06:19.621Z,34.64
2016-05-31T11:07:19.654Z,34.62
2016-05-31T11:08:19.533Z,34.6
2016-05-31T11:09:19.723Z,34.64
2016-05-31T11:10:19.600Z,34.62
2016-05-31T11:11:19.634Z,34.73
2016-05-31T11:12:19.824Z,34.66
2016-05-31T11:13:19.873Z,34.74
2016-05-31T11:14:19.893Z,34.78
2016-05-31T11:15:19.926Z,34.85
2016-05-31T11:16:19.960Z,34.93
2016-05-31T11:17:19.995Z,34.96
2016-05-31T11:18:20.043Z,35
2016-05-31T11:19:19.906Z,35.05
2016-05-31T11:20:20.127Z,35.12
2016-05-31T11:21:19.989Z,35.19
2016-05-31T11:22:20.179Z,35.14
2016-05-31T11:23:20.479Z,35.14
2016-05-31T11:24:20.356Z,35.14
2016-05-31T11:25:20.359Z,35.12
2016-05-31T11:26:20.331Z,35.1
2016-05-31T11:27:20.364Z,35.26
2016-05-31T11:28:20.399Z,35.24
2016-05-31T11:29:20.527Z,35.36
2016-05-31T11:30:20.529Z,35.39
2016-05-31T11:31:20.532Z,35.49
2016-05-31T11:32:20.549Z,35.55
2016-05-31T11:33:20.569Z,35.63
2016-05-31T11:34:20.618Z,35.71
2016-05-31T11:35:20.652Z,35.76
2016-05-31T11:36:20.779Z,35.83
2016-05-31T11:37:20.719Z,35.8
2016-05-31T11:38:20.612Z,35.92
2016-05-31T11:39:20.787Z,35.93
2016-05-31T11:40:20.666Z,35.93
2016-05-31T11:41:20.699Z,35.98
2016-05-31T11:42:20.904Z,36.01
2016-05-31T11:43:20.940Z,36.08
2016-05-31T11:44:20.973Z,36.18
2016-05-31T11:45:21.023Z,36.25
2016-05-31T11:46:21.041Z,36.21
2016-05-31T11:47:20.918Z,36.36
2016-05-31T11:48:21.108Z,36.39
2016-05-31T11:49:21.001Z,36.46
2016-05-31T11:50:21.192Z,36.47
2016-05-31T11:51:21.226Z,36.68
2016-05-31T11:52:21.307Z,36.74
2016-05-31T11:53:21.075Z,36.86
2016-05-31T11:54:21.359Z,36.93
2016-05-31T11:55:21.377Z,36.99
2016-05-31T11:56:21.255Z,37.08
2016-05-31T11:57:21.445Z,37.2
2016-05-31T11:58:21.495Z,37.28
2016-05-31T11:59:21.513Z,37.47
2016-05-31T12:00:21.578Z,37.55
2016-05-31T12:01:21.596Z,37.56
2016-05-31T12:02:21.630Z,37.65
2016-05-31T12:03:21.665Z,37.68
2016-05-31T12:04:21.699Z,37.7
2016-05-31T12:05:21.749Z,37.8
2016-05-31T12:06:21.782Z,37.84
2016-05-31T12:07:21.815Z,37.87
2016-05-31T12:08:21.741Z,37.89
2016-05-31T12:09:21.885Z,38.04
2016-05-31T12:10:21.933Z,38.05
2016-05-31T12:11:21.968Z,38.08
2016-05-31T12:12:21.845Z,38.17
2016-05-31T12:13:21.879Z,38.17
2016-05-31T12:14:21.913Z,38.12
2016-05-31T12:15:22.181Z,38.06
2016-05-31T12:16:22.199Z,38.05
2016-05-31T12:17:22.202Z,37.96
2016-05-31T12:18:22.329Z,38.01
2016-05-31T12:19:22.176Z,37.93
2016-05-31T12:20:22.226Z,37.8
2016-05-31T12:21:22.401Z,37.74
2016-05-31T12:22:22.466Z,37.77
2016-05-31T12:23:22.734Z,37.67
2016-05-31T12:24:22.502Z,37.67
2016-05-31T12:25:22.380Z,37.59
2016-05-31T12:26:22.523Z,37.51
2016-05-31T12:27:22.573Z,37.59
2016-05-31T12:28:22.606Z,37.45
2016-05-31T12:29:22.656Z,37.47
2016-05-31T12:30:22.753Z,37.37
2016-05-31T12:31:22.724Z,37.36
2016-05-31T12:32:22.617Z,37.2
2016-05-31T12:33:22.807Z,37.18
2016-05-31T12:34:22.685Z,37.03
2016-05-31T12:35:22.891Z,37.02
2016-05-31T12:36:22.753Z,36.93
2016-05-31T12:37:22.944Z,36.89
2016-05-31T12:38:23.524Z,36.84
2016-05-31T12:39:23.136Z,36.67
2016-05-31T12:40:23.045Z,36.74
2016-05-31T12:41:23.220Z,36.65
2016-05-31T12:42:23.144Z,36.62
2016-05-31T12:43:23.288Z,36.58
2016-05-31T12:44:23.165Z,36.55
2016-05-31T12:45:23.324Z,36.46
2016-05-31T12:46:23.342Z,36.49
2016-05-31T12:47:23.345Z,36.58
2016-05-31T12:48:23.458Z,36.58
2016-05-31T12:49:23.476Z,36.59
2016-05-31T12:50:23.510Z,36.57
2016-05-31T12:51:23.512Z,36.47
2016-05-31T12:52:23.515Z,36.49
2016-05-31T12:53:23.830Z,36.46
2016-05-31T12:54:23.598Z,36.47
2016-05-31T12:55:23.617Z,36.36
2016-05-31T12:56:23.511Z,36.3
2016-05-31T12:57:23.700Z,36.24
2016-05-31T12:58:23.734Z,36.23
2016-05-31T12:59:23.769Z,36.17
2016-05-31T13:00:23.817Z,36.08
2016-05-31T13:01:23.836Z,36.01
2016-05-31T13:02:23.730Z,36.02
2016-05-31T13:03:23.920Z,35.9
2016-05-31T13:04:23.953Z,35.88
2016-05-31T13:05:23.988Z,35.79
2016-05-31T13:06:24.037Z,35.76
2016-05-31T13:07:23.916Z,35.71
2016-05-31T13:08:23.964Z,35.78
2016-05-31T13:09:24.139Z,35.58
2016-05-31T13:10:24.188Z,35.53
2016-05-31T13:11:24.222Z,35.52